Time;durP1;ratioP1;P1;durP2;ratioP2;P2;SDS_P1;SDS_P2;PMS_P1;PMS_P2;Temp;Humidity;BMP_temperature;BMP_pressure;BME280_temperature;BME280_humidity;BME280_pressure;Samples;Min_cycle;Max_cycle;Signal;HPM_P1;HPM_P2
2020/12/06 00:01:55;;;;;;;47.93;24.90;;;;;;;;;;5015824;28;20549;-72
2020/12/06 00:04:59;;;;;;;43.33;24.07;;;;;;;;;;5016029;28;20596;-72
2020/12/06 00:08:03;;;;;;;44.43;24.57;;;;;;;;;;5018824;28;20623;-72
2020/12/06 00:11:08;;;;;;;48.07;24.73;;;;;;;;;;5015647;28;20552;-72
2020/12/06 00:14:12;;;;;;;53.10;26.60;;;;;;;;;;5015790;28;20553;-73
2020/12/06 00:17:16;;;;;;;47.70;25.93;;;;;;;;;;5018219;28;20667;-74
2020/12/06 00:20:20;;;;;;;42.43;24.00;;;;;;;;;;5004838;28;20580;-73
2020/12/06 00:23:24;;;;;;;44.83;25.23;;;;;;;;;;5015371;28;20588;-74
2020/12/06 00:26:28;;;;;;;41.60;24.20;;;;;;;;;;5015079;28;20644;-73
2020/12/06 00:29:33;;;;;;;44.80;24.43;;;;;;;;;;5016330;28;20588;-73
2020/12/06 00:32:38;;;;;;;51.53;26.40;;;;;;;;;;5015121;28;20600;-73
2020/12/06 00:35:42;;;;;;;47.50;25.53;;;;;;;;;;5015435;28;21236;-73
2020/12/06 00:38:46;;;;;;;47.63;25.47;;;;;;;;;;5016352;28;21165;-73
2020/12/06 00:41:50;;;;;;;44.33;25.87;;;;;;;;;;5015524;28;20877;-73
2020/12/06 00:44:54;;;;;;;46.20;25.93;;;;;;;;;;5007546;28;21137;-72
2020/12/06 00:47:59;;;;;;;41.07;24.30;;;;;;;;;;5033971;28;20583;-73
2020/12/06 00:51:03;;;;;;;43.63;22.80;;;;;;;;;;5022623;28;20540;-73
2020/12/06 00:54:08;;;;;;;41.10;23.10;;;;;;;;;;5022172;28;20591;-73
2020/12/06 00:57:12;;;;;;;41.53;23.37;;;;;;;;;;5021845;28;20663;-74
2020/12/06 01:00:17;;;;;;;41.37;23.27;;;;;;;;;;5034690;28;20555;-73
2020/12/06 01:03:21;;;;;;;37.70;20.97;;;;;;;;;;5034620;28;20539;-73
2020/12/06 01:06:25;;;;;;;36.93;21.77;;;;;;;;;;5022612;28;20620;-73
2020/12/06 01:09:29;;;;;;;40.07;22.73;;;;;;;;;;5015479;28;21237;-73
2020/12/06 01:12:35;;;;;;;38.90;21.83;;;;;;;;;;5002284;28;20588;-74
2020/12/06 01:15:39;;;;;;;38.60;22.13;;;;;;;;;;5015015;28;20541;-74
2020/12/06 01:18:43;;;;;;;36.00;21.53;;;;;;;;;;5014677;28;20583;-73
2020/12/06 01:21:51;;;;;;;36.17;21.40;;;;;;;;;;5022336;28;20536;-73
2020/12/06 01:24:56;;;;;;;36.53;21.63;;;;;;;;;;5022004;28;20599;-73
2020/12/06 01:28:00;;;;;;;39.43;20.93;;;;;;;;;;5027550;28;20593;-73
2020/12/06 01:31:07;;;;;;;37.10;21.47;;;;;;;;;;5022601;28;20592;-73
2020/12/06 01:34:11;;;;;;;37.10;21.00;;;;;;;;;;5014262;28;20619;-73
2020/12/06 01:37:16;;;;;;;37.33;20.20;;;;;;;;;;5014725;28;20651;-73
2020/12/06 01:40:20;;;;;;;30.53;18.57;;;;;;;;;;5033672;28;20556;-73
2020/12/06 01:43:24;;;;;;;37.23;21.03;;;;;;;;;;5034102;28;20599;-73
2020/12/06 01:46:28;;;;;;;33.77;20.27;;;;;;;;;;5025798;28;20644;-74
2020/12/06 01:49:35;;;;;;;39.03;20.93;;;;;;;;;;5032872;28;20587;-73
2020/12/06 01:52:43;;;;;;;33.80;19.97;;;;;;;;;;5033372;28;20592;-73
2020/12/06 01:55:48;;;;;;;40.73;21.87;;;;;;;;;;5033790;28;20970;-73
2020/12/06 01:58:52;;;;;;;33.20;19.93;;;;;;;;;;5019142;28;20585;-73
2020/12/06 02:02:01;;;;;;;34.80;20.00;;;;;;;;;;5013711;28;20556;-73
2020/12/06 02:05:06;;;;;;;35.40;20.20;;;;;;;;;;5002040;28;20548;-73
2020/12/06 02:08:12;;;;;;;33.73;20.03;;;;;;;;;;5013892;28;20627;-74
2020/12/06 02:11:32;;;;;;;34.90;19.97;;;;;;;;;;5013732;28;20553;-73
2020/12/06 02:14:36;;;;;;;35.73;20.40;;;;;;;;;;5012743;28;20549;-73
2020/12/06 02:17:40;;;;;;;35.17;20.80;;;;;;;;;;5006660;28;20651;-73
2020/12/06 02:20:44;;;;;;;36.10;19.40;;;;;;;;;;5033375;28;20544;-73
2020/12/06 02:23:48;;;;;;;32.60;20.43;;;;;;;;;;5032964;28;20615;-73
2020/12/06 02:26:53;;;;;;;32.07;19.67;;;;;;;;;;5032940;28;20623;-73
2020/12/06 02:29:57;;;;;;;36.47;20.43;;;;;;;;;;5033261;28;20543;-73
2020/12/06 02:33:03;;;;;;;33.03;20.20;;;;;;;;;;5033551;28;20544;-73
2020/12/06 02:36:07;;;;;;;33.10;20.43;;;;;;;;;;5021042;28;20619;-73
2020/12/06 02:39:13;;;;;;;35.00;20.33;;;;;;;;;;5013493;28;20956;-73
2020/12/06 02:42:18;;;;;;;38.97;21.17;;;;;;;;;;5016683;28;20584;-73
2020/12/06 02:45:22;;;;;;;33.70;20.23;;;;;;;;;;5013375;28;20549;-73
2020/12/06 02:48:26;;;;;;;34.87;20.03;;;;;;;;;;5025535;28;20579;-73
2020/12/06 02:51:30;;;;;;;32.37;20.77;;;;;;;;;;5033387;28;20871;-73
2020/12/06 02:54:37;;;;;;;34.97;20.50;;;;;;;;;;5033204;28;20548;-73
2020/12/06 02:57:41;;;;;;;35.83;21.23;;;;;;;;;;5031509;28;20667;-73
2020/12/06 03:00:45;;;;;;;33.17;20.80;;;;;;;;;;5032592;28;20591;-73
2020/12/06 03:03:50;;;;;;;34.33;20.07;;;;;;;;;;5032475;28;20587;-73
2020/12/06 03:06:54;;;;;;;37.10;20.37;;;;;;;;;;5029510;28;20636;-73
2020/12/06 03:09:58;;;;;;;39.97;21.27;;;;;;;;;;5016564;28;20626;-73
2020/12/06 03:13:02;;;;;;;34.53;20.93;;;;;;;;;;5032921;28;20536;-73
2020/12/06 03:16:06;;;;;;;38.03;20.17;;;;;;;;;;5032790;28;20627;-73
2020/12/06 03:19:10;;;;;;;32.97;20.37;;;;;;;;;;5031984;28;20591;-73
2020/12/06 03:22:14;;;;;;;33.37;19.50;;;;;;;;;;5031579;28;20993;-73
2020/12/06 03:25:18;;;;;;;33.37;20.60;;;;;;;;;;5032934;28;20598;-73
2020/12/06 03:28:23;;;;;;;33.90;20.20;;;;;;;;;;4992998;28;20593;-73
2020/12/06 03:31:27;;;;;;;34.77;19.30;;;;;;;;;;5016512;28;20564;-73
2020/12/06 03:34:31;;;;;;;36.43;20.27;;;;;;;;;;5005048;28;21063;-73
2020/12/06 03:37:36;;;;;;;36.67;20.97;;;;;;;;;;5002329;28;21237;-73
2020/12/06 03:40:40;;;;;;;29.70;18.73;;;;;;;;;;5015110;28;20633;-73
2020/12/06 03:43:45;;;;;;;35.00;19.93;;;;;;;;;;5004545;28;21090;-73
2020/12/06 03:46:49;;;;;;;32.37;19.13;;;;;;;;;;4993242;28;20624;-73
2020/12/06 03:49:53;;;;;;;33.97;20.07;;;;;;;;;;4993148;28;20540;-73
2020/12/06 03:52:58;;;;;;;35.63;20.73;;;;;;;;;;4984594;28;20580;-73
2020/12/06 03:56:02;;;;;;;31.80;19.00;;;;;;;;;;5018448;28;20647;-73
2020/12/06 03:59:06;;;;;;;35.53;20.73;;;;;;;;;;5023326;28;21231;-73
2020/12/06 04:02:13;;;;;;;36.37;20.77;;;;;;;;;;5001010;28;20552;-73
2020/12/06 04:05:21;;;;;;;34.80;21.87;;;;;;;;;;5012527;28;20565;-73
2020/12/06 04:08:26;;;;;;;37.23;21.10;;;;;;;;;;5035774;28;20607;-73
2020/12/06 04:11:30;;;;;;;40.27;21.53;;;;;;;;;;4982325;28;21229;-73
2020/12/06 04:14:34;;;;;;;42.23;22.57;;;;;;;;;;4982285;28;20584;-73
2020/12/06 04:17:39;;;;;;;40.70;22.50;;;;;;;;;;5003245;28;20672;-73
2020/12/06 04:20:43;;;;;;;39.47;22.00;;;;;;;;;;5015990;28;20949;-73
2020/12/06 04:23:47;;;;;;;45.07;23.03;;;;;;;;;;5003838;28;20865;-73
2020/12/06 04:26:51;;;;;;;53.97;23.60;;;;;;;;;;5015300;28;20615;-73
2020/12/06 04:29:55;;;;;;;46.07;21.20;;;;;;;;;;5014842;28;20604;-73
2020/12/06 04:32:59;;;;;;;43.60;22.90;;;;;;;;;;5011834;28;21115;-73
2020/12/06 04:36:03;;;;;;;44.93;23.33;;;;;;;;;;5003531;28;20620;-73
2020/12/06 04:39:07;;;;;;;41.70;23.87;;;;;;;;;;5014389;28;20929;-73
2020/12/06 04:42:13;;;;;;;42.77;23.87;;;;;;;;;;5003244;28;20549;-73
2020/12/06 04:45:18;;;;;;;40.70;23.80;;;;;;;;;;5002979;28;20546;-73
2020/12/06 04:48:43;;;;;;;42.50;22.27;;;;;;;;;;5003328;28;20544;-73
2020/12/06 04:51:54;;;;;;;42.50;23.07;;;;;;;;;;5003028;28;20541;-73
2020/12/06 04:54:59;;;;;;;43.57;24.00;;;;;;;;;;5014944;28;20556;-73
2020/12/06 04:58:04;;;;;;;41.87;22.80;;;;;;;;;;5022370;28;20636;-73
2020/12/06 05:01:09;;;;;;;46.27;23.30;;;;;;;;;;4991252;28;20592;-73
2020/12/06 05:04:15;;;;;;;43.73;23.47;;;;;;;;;;5020682;28;20592;-73
2020/12/06 05:07:21;;;;;;;48.30;25.70;;;;;;;;;;5022028;28;21269;-73
2020/12/06 05:10:27;;;;;;;43.37;22.87;;;;;;;;;;5034180;28;20544;-73
2020/12/06 05:13:31;;;;;;;40.77;22.93;;;;;;;;;;5021686;28;20584;-73
2020/12/06 05:16:37;;;;;;;44.77;23.67;;;;;;;;;;5034072;28;20619;-73
2020/12/06 05:19:41;;;;;;;43.10;22.27;;;;;;;;;;5022815;28;20580;-73
2020/12/06 05:22:45;;;;;;;45.37;23.53;;;;;;;;;;5014769;28;21106;-73
2020/12/06 05:25:49;;;;;;;38.93;21.33;;;;;;;;;;5017620;28;20635;-73
2020/12/06 05:28:54;;;;;;;36.43;21.50;;;;;;;;;;5002196;28;20541;-73
2020/12/06 05:31:59;;;;;;;39.77;22.13;;;;;;;;;;5002195;28;20545;-73
2020/12/06 05:35:05;;;;;;;43.90;21.73;;;;;;;;;;5002314;28;20888;-73
2020/12/06 05:38:09;;;;;;;40.20;22.50;;;;;;;;;;5014113;28;20592;-73
2020/12/06 05:41:14;;;;;;;47.63;23.13;;;;;;;;;;5026820;28;20599;-73
2020/12/06 05:44:21;;;;;;;43.33;22.17;;;;;;;;;;5033590;28;20595;-73
2020/12/06 05:47:27;;;;;;;43.30;22.13;;;;;;;;;;5033429;28;20619;-73
2020/12/06 05:50:32;;;;;;;35.63;20.60;;;;;;;;;;5032915;28;20540;-73
2020/12/06 05:53:36;;;;;;;39.33;22.00;;;;;;;;;;5032748;28;20591;-73
2020/12/06 05:56:43;;;;;;;38.10;21.47;;;;;;;;;;5004649;28;20656;-73
2020/12/06 05:59:48;;;;;;;37.13;20.17;;;;;;;;;;4990385;28;20548;-73
2020/12/06 06:02:57;;;;;;;36.33;19.97;;;;;;;;;;5013816;28;21120;-73
2020/12/06 06:06:07;;;;;;;34.27;19.80;;;;;;;;;;5013679;28;20620;-73
2020/12/06 06:09:13;;;;;;;36.67;19.67;;;;;;;;;;5016446;28;21212;-73
2020/12/06 06:12:42;;;;;;;34.43;20.60;;;;;;;;;;5013628;28;20541;-73
2020/12/06 06:15:46;;;;;;;35.43;20.03;;;;;;;;;;5013642;28;20651;-73
2020/12/06 06:18:51;;;;;;;35.43;20.30;;;;;;;;;;5013501;28;20648;-73
2020/12/06 06:21:56;;;;;;;39.53;20.33;;;;;;;;;;5016211;28;20967;-73
2020/12/06 06:25:03;;;;;;;31.50;19.03;;;;;;;;;;5033098;28;20569;-73
2020/12/06 06:28:08;;;;;;;41.27;20.67;;;;;;;;;;5033218;28;20545;-73
2020/12/06 06:31:14;;;;;;;44.23;20.47;;;;;;;;;;5021123;28;20587;-73
2020/12/06 06:34:23;;;;;;;36.87;19.83;;;;;;;;;;5027874;28;20614;-73
2020/12/06 06:37:32;;;;;;;35.87;18.77;;;;;;;;;;5029278;28;20647;-73
2020/12/06 06:40:36;;;;;;;39.33;20.07;;;;;;;;;;5033277;28;20564;-73
2020/12/06 06:43:42;;;;;;;36.87;18.30;;;;;;;;;;5009809;28;20595;-73
2020/12/06 06:46:49;;;;;;;37.20;21.63;;;;;;;;;;5032809;28;20623;-73
2020/12/06 06:49:55;;;;;;;51.67;21.93;;;;;;;;;;5023272;28;21208;-73
2020/12/06 06:53:01;;;;;;;37.00;20.90;;;;;;;;;;5013301;28;20545;-73
2020/12/06 06:56:08;;;;;;;60.87;22.47;;;;;;;;;;5013037;28;20623;-73
2020/12/06 06:59:12;;;;;;;54.07;21.63;;;;;;;;;;4978971;28;20647;-73
2020/12/06 07:02:46;;;;;;;47.73;23.00;;;;;;;;;;5016445;28;20568;-73
2020/12/06 07:05:52;;;;;;;49.20;23.17;;;;;;;;;;5012606;28;20645;-73
2020/12/06 07:08:56;;;;;;;134.60;24.60;;;;;;;;;;4982985;28;21173;-73
2020/12/06 07:12:00;;;;;;;164.07;25.23;;;;;;;;;;5008786;28;20594;-74
2020/12/06 07:15:06;;;;;;;62.67;23.10;;;;;;;;;;5035512;28;20543;-73
2020/12/06 07:18:10;;;;;;;51.73;22.13;;;;;;;;;;5036127;28;20637;-73
2020/12/06 07:21:15;;;;;;;46.00;24.33;;;;;;;;;;5009434;28;20627;-73
2020/12/06 07:24:19;;;;;;;47.77;23.43;;;;;;;;;;5026002;28;20584;-73
2020/12/06 07:27:24;;;;;;;40.43;21.80;;;;;;;;;;5005624;28;20639;-73
2020/12/06 07:30:28;;;;;;;34.23;20.47;;;;;;;;;;5004417;28;20592;-73
2020/12/06 07:33:32;;;;;;;37.20;19.27;;;;;;;;;;5016495;28;20564;-73
2020/12/06 07:36:37;;;;;;;45.03;23.43;;;;;;;;;;5016756;28;20623;-73
2020/12/06 07:39:45;;;;;;;35.77;20.07;;;;;;;;;;5016379;28;20600;-73
2020/12/06 07:42:49;;;;;;;32.80;19.77;;;;;;;;;;5022976;23;21272;-76
2020/12/06 07:45:53;;;;;;;33.00;18.87;;;;;;;;;;5012191;28;20638;-74
2020/12/06 07:48:57;;;;;;;48.77;20.67;;;;;;;;;;5032035;28;20575;-75
2020/12/06 07:52:16;;;;;;;79.13;36.93;;;;;;;;;;5031562;28;20610;-75
2020/12/06 07:55:20;;;;;;;58.80;32.23;;;;;;;;;;5021954;28;20555;-75
2020/12/06 07:58:27;;;;;;;45.30;22.80;;;;;;;;;;5013948;28;20619;-75
2020/12/06 08:01:31;;;;;;;43.87;22.63;;;;;;;;;;5022969;28;20599;-75
2020/12/06 08:04:36;;;;;;;41.23;21.17;;;;;;;;;;5035383;28;20543;-75
2020/12/06 08:07:46;;;;;;;56.73;26.07;;;;;;;;;;5035753;28;20607;-75
2020/12/06 08:10:51;;;;;;;53.60;25.20;;;;;;;;;;5022486;28;20939;-75
2020/12/06 08:13:56;;;;;;;50.50;26.70;;;;;;;;;;5016948;28;20596;-75
2020/12/06 08:17:01;;;;;;;57.40;34.37;;;;;;;;;;5014954;28;20651;-75
2020/12/06 08:20:10;;;;;;;50.20;26.90;;;;;;;;;;5035450;28;20967;-75
2020/12/06 08:23:15;;;;;;;53.33;24.93;;;;;;;;;;5035676;28;21054;-75
2020/12/06 08:26:37;;;;;;;43.80;24.37;;;;;;;;;;5009854;28;20660;-75
2020/12/06 08:29:43;;;;;;;43.47;23.63;;;;;;;;;;5003324;28;20560;-75
2020/12/06 08:32:54;;;;;;;46.73;23.60;;;;;;;;;;5003064;28;20549;-75
2020/12/06 08:35:59;;;;;;;57.87;32.43;;;;;;;;;;5004384;28;21224;-76
2020/12/06 08:39:14;;;;;;;50.63;28.33;;;;;;;;;;5016545;28;20660;-75
2020/12/06 08:42:20;;;;;;;71.67;40.33;;;;;;;;;;5015350;28;20999;-76
2020/12/06 08:45:25;;;;;;;52.37;27.80;;;;;;;;;;5003148;28;20612;-75
2020/12/06 08:48:29;;;;;;;49.07;27.33;;;;;;;;;;5015093;28;20636;-75
2020/12/06 08:51:36;;;;;;;48.70;27.87;;;;;;;;;;4991762;28;20684;-76
2020/12/06 08:54:43;;;;;;;45.13;26.03;;;;;;;;;;5019726;28;20599;-75
2020/12/06 08:57:47;;;;;;;47.67;27.43;;;;;;;;;;5022388;28;20535;-75
2020/12/06 09:00:51;;;;;;;48.37;25.93;;;;;;;;;;5002879;28;20588;-76
2020/12/06 09:03:56;;;;;;;45.17;24.70;;;;;;;;;;5016622;28;20579;-76
2020/12/06 09:07:03;;;;;;;52.13;28.90;;;;;;;;;;5030463;28;20650;-77
2020/12/06 09:10:07;;;;;;;44.03;26.17;;;;;;;;;;5019155;28;20963;-76
2020/12/06 09:13:11;;;;;;;56.47;29.93;;;;;;;;;;5021916;28;20918;-76
2020/12/06 09:16:15;;;;;;;48.00;27.67;;;;;;;;;;5021919;28;21018;-76
2020/12/06 09:19:19;;;;;;;46.03;25.93;;;;;;;;;;5033390;28;20607;-76
2020/12/06 09:22:23;;;;;;;51.10;28.80;;;;;;;;;;5034756;28;20548;-76
2020/12/06 09:25:27;;;;;;;47.77;26.03;;;;;;;;;;5033812;28;21122;-76
2020/12/06 09:28:33;;;;;;;52.73;26.80;;;;;;;;;;5033524;28;20535;-76
2020/12/06 09:31:37;;;;;;;52.80;28.30;;;;;;;;;;5010666;28;20556;-76
2020/12/06 09:34:41;;;;;;;48.13;26.13;;;;;;;;;;5034576;28;21084;-77
2020/12/06 09:37:45;;;;;;;54.23;29.27;;;;;;;;;;5034079;28;20615;-76
2020/12/06 09:40:49;;;;;;;46.43;25.50;;;;;;;;;;4999201;28;20616;-76
2020/12/06 09:43:54;;;;;;;44.80;22.17;;;;;;;;;;5033777;28;20536;-76
2020/12/06 09:46:58;;;;;;;45.77;22.73;;;;;;;;;;5033161;28;20627;-76
2020/12/06 09:50:02;;;;;;;47.30;25.03;;;;;;;;;;5021930;28;20591;-76
2020/12/06 09:53:07;;;;;;;44.97;23.57;;;;;;;;;;5022013;28;20591;-76
2020/12/06 09:56:11;;;;;;;90.43;40.33;;;;;;;;;;5021080;28;20615;-76
2020/12/06 09:59:15;;;;;;;155.40;66.43;;;;;;;;;;5033418;28;20592;-77
2020/12/06 10:02:19;;;;;;;159.97;70.13;;;;;;;;;;4998808;28;20566;-77
2020/12/06 10:05:24;;;;;;;113.17;53.87;;;;;;;;;;5033472;28;20566;-77
2020/12/06 10:08:28;;;;;;;113.50;52.90;;;;;;;;;;5010289;28;20191;-77
2020/12/06 10:11:32;;;;;;;91.20;46.83;;;;;;;;;;5011935;28;20184;-77
2020/12/06 10:14:36;;;;;;;59.50;32.00;;;;;;;;;;5022176;28;20184;-77
2020/12/06 10:17:40;;;;;;;39.40;20.73;;;;;;;;;;5021399;28;20715;-77
2020/12/06 10:20:45;;;;;;;39.73;22.63;;;;;;;;;;5009766;28;20208;-77
2020/12/06 10:23:49;;;;;;;40.00;22.23;;;;;;;;;;5021904;28;20536;-77
2020/12/06 10:26:55;;;;;;;36.10;20.57;;;;;;;;;;5033887;28;20208;-77
2020/12/06 10:29:59;;;;;;;42.13;21.17;;;;;;;;;;5022270;28;20181;-77
2020/12/06 10:33:04;;;;;;;41.83;20.53;;;;;;;;;;5000866;28;20201;-77
2020/12/06 10:36:10;;;;;;;38.70;19.33;;;;;;;;;;5014869;28;20221;-76
2020/12/06 10:39:14;;;;;;;39.93;20.67;;;;;;;;;;4994111;28;20213;-77
2020/12/06 10:42:18;;;;;;;49.17;27.83;;;;;;;;;;5027842;28;20208;-77
2020/12/06 10:45:22;;;;;;;43.63;22.93;;;;;;;;;;4983035;28;20177;-77
2020/12/06 10:48:27;;;;;;;48.97;26.77;;;;;;;;;;5017682;28;20181;-76
2020/12/06 10:51:31;;;;;;;42.50;21.70;;;;;;;;;;5020838;28;20556;-76
2020/12/06 10:54:35;;;;;;;41.73;21.47;;;;;;;;;;5024262;28;20177;-77
2020/12/06 10:57:39;;;;;;;38.83;19.63;;;;;;;;;;5036899;28;20220;-76
2020/12/06 11:00:43;;;;;;;40.77;20.60;;;;;;;;;;5004882;28;20220;-78
2020/12/06 11:03:47;;;;;;;41.97;21.67;;;;;;;;;;5009970;28;20184;-76
2020/12/06 11:06:52;;;;;;;49.17;24.23;;;;;;;;;;5024371;28;20228;-77
2020/12/06 11:09:55;;;;;;;46.87;22.90;;;;;;;;;;5024370;28;20632;-76
2020/12/06 11:13:00;;;;;;;43.57;21.63;;;;;;;;;;5023313;28;20600;-77
2020/12/06 11:16:04;;;;;;;45.50;22.27;;;;;;;;;;5017477;28;20221;-77
2020/12/06 11:19:08;;;;;;;42.17;23.23;;;;;;;;;;5021530;28;20572;-78
2020/12/06 11:22:12;;;;;;;43.93;21.60;;;;;;;;;;5015757;28;20595;-77
2020/12/06 11:25:16;;;;;;;40.43;20.80;;;;;;;;;;5035546;28;20196;-78
2020/12/06 11:28:21;;;;;;;38.10;19.30;;;;;;;;;;5036135;28;20665;-77
2020/12/06 11:31:25;;;;;;;42.50;20.63;;;;;;;;;;4999195;28;20174;-76
2020/12/06 11:34:29;;;;;;;35.03;18.83;;;;;;;;;;4993896;28;20189;-76
2020/12/06 11:37:33;;;;;;;36.37;19.93;;;;;;;;;;5016442;28;20221;-77
2020/12/06 11:40:37;;;;;;;37.47;19.10;;;;;;;;;;5004191;28;20213;-76
2020/12/06 11:43:41;;;;;;;37.93;19.07;;;;;;;;;;5016292;28;20193;-76
2020/12/06 11:46:46;;;;;;;33.87;16.70;;;;;;;;;;5034270;28;20689;-76
2020/12/06 11:49:50;;;;;;;33.00;16.93;;;;;;;;;;5036130;28;20196;-76
2020/12/06 11:52:54;;;;;;;29.90;15.60;;;;;;;;;;5012503;28;20197;-76
2020/12/06 11:55:58;;;;;;;31.83;16.30;;;;;;;;;;5000329;28;20221;-76
2020/12/06 11:59:03;;;;;;;30.17;15.10;;;;;;;;;;5016016;28;20189;-77
2020/12/06 12:02:07;;;;;;;30.37;14.87;;;;;;;;;;5015841;28;20166;-76
2020/12/06 12:05:12;;;;;;;36.73;17.10;;;;;;;;;;5016164;28;20197;-76
2020/12/06 12:08:16;;;;;;;30.77;16.13;;;;;;;;;;5003578;28;20214;-77
2020/12/06 12:11:21;;;;;;;34.57;16.60;;;;;;;;;;5015960;28;20197;-76
2020/12/06 12:14:25;;;;;;;34.43;16.17;;;;;;;;;;5016702;28;20186;-76
2020/12/06 12:17:33;;;;;;;31.03;16.23;;;;;;;;;;5012947;28;20718;-75
2020/12/06 12:20:37;;;;;;;36.03;17.40;;;;;;;;;;5024174;28;20213;-75
2020/12/06 12:23:41;;;;;;;46.53;22.17;;;;;;;;;;5014819;28;20186;-75
2020/12/06 12:26:45;;;;;;;38.33;18.73;;;;;;;;;;5003572;28;20237;-75
2020/12/06 12:29:50;;;;;;;36.43;18.20;;;;;;;;;;5013597;28;20188;-75
2020/12/06 12:32:54;;;;;;;36.97;17.80;;;;;;;;;;5003117;28;20193;-75
2020/12/06 12:35:58;;;;;;;39.23;19.30;;;;;;;;;;5016257;28;20541;-76
2020/12/06 12:39:02;;;;;;;33.63;16.00;;;;;;;;;;5015264;28;20189;-75
2020/12/06 12:42:06;;;;;;;35.27;17.70;;;;;;;;;;5021255;28;20204;-75
2020/12/06 12:45:11;;;;;;;37.10;18.50;;;;;;;;;;5034657;28;20622;-75
2020/12/06 12:48:15;;;;;;;37.43;16.63;;;;;;;;;;5034666;28;20591;-75
2020/12/06 12:51:19;;;;;;;46.57;22.93;;;;;;;;;;5022620;28;20584;-75
2020/12/06 12:54:23;;;;;;;40.33;18.93;;;;;;;;;;5014749;28;20557;-74
2020/12/06 12:57:28;;;;;;;36.67;18.70;;;;;;;;;;5014576;28;20616;-74
2020/12/06 13:00:32;;;;;;;56.93;25.67;;;;;;;;;;5015089;28;20656;-75
2020/12/06 13:03:37;;;;;;;52.70;23.93;;;;;;;;;;5002615;28;21232;-74
2020/12/06 13:06:40;;;;;;;35.90;17.23;;;;;;;;;;5016667;28;20654;-75
2020/12/06 13:09:45;;;;;;;41.20;19.73;;;;;;;;;;5022103;28;20540;-76
2020/12/06 13:12:50;;;;;;;40.57;19.23;;;;;;;;;;5002324;28;20553;-75
2020/12/06 13:15:54;;;;;;;56.10;26.20;;;;;;;;;;5014541;28;20656;-75
2020/12/06 13:18:57;;;;;;;61.87;26.07;;;;;;;;;;4991497;28;20603;-75
2020/12/06 13:22:01;;;;;;;60.83;25.27;;;;;;;;;;5019311;28;20619;-74
2020/12/06 13:25:06;;;;;;;77.80;29.43;;;;;;;;;;5031649;28;20551;-74
2020/12/06 13:28:10;;;;;;;34.57;16.80;;;;;;;;;;5014403;28;21086;-75
2020/12/06 13:31:21;;;;;;;33.33;16.27;;;;;;;;;;5002101;28;20616;-75
2020/12/06 13:34:25;;;;;;;34.47;15.57;;;;;;;;;;5009712;28;20580;-74
2020/12/06 13:37:30;;;;;;;35.27;16.70;;;;;;;;;;5002105;28;20625;-75
2020/12/06 13:40:34;;;;;;;32.80;15.20;;;;;;;;;;5014963;28;21236;-74
2020/12/06 13:43:40;;;;;;;54.23;26.53;;;;;;;;;;4990653;28;20604;-75
2020/12/06 13:46:44;;;;;;;36.77;18.50;;;;;;;;;;5014112;28;20648;-75
2020/12/06 13:49:48;;;;;;;35.90;16.50;;;;;;;;;;5016091;28;20583;-75
2020/12/06 13:52:52;;;;;;;33.07;16.63;;;;;;;;;;5033930;28;21082;-75
2020/12/06 13:55:57;;;;;;;36.10;17.63;;;;;;;;;;5021527;28;20648;-75
2020/12/06 13:59:01;;;;;;;36.57;16.70;;;;;;;;;;5014478;28;20173;-75
2020/12/06 14:02:06;;;;;;;47.47;25.43;;;;;;;;;;5021168;28;20623;-75
2020/12/06 14:05:10;;;;;;;45.10;21.90;;;;;;;;;;5012957;28;20691;-75
2020/12/06 14:08:14;;;;;;;42.80;20.63;;;;;;;;;;5013026;28;20632;-76
2020/12/06 14:11:19;;;;;;;35.57;17.37;;;;;;;;;;5000526;28;20604;-75
2020/12/06 14:14:23;;;;;;;36.80;17.43;;;;;;;;;;5001164;28;20603;-75
2020/12/06 14:17:27;;;;;;;40.40;19.77;;;;;;;;;;5016322;28;20983;-75
2020/12/06 14:20:31;;;;;;;36.60;21.27;;;;;;;;;;5014655;28;20628;-75
2020/12/06 14:23:35;;;;;;;47.70;24.90;;;;;;;;;;5013565;28;20541;-74
2020/12/06 14:26:39;;;;;;;40.00;22.50;;;;;;;;;;5009570;28;20642;-74
2020/12/06 14:29:43;;;;;;;47.83;25.17;;;;;;;;;;5021330;28;20548;-74
2020/12/06 14:32:47;;;;;;;44.73;24.10;;;;;;;;;;5032844;28;20556;-74
2020/12/06 14:35:51;;;;;;;50.57;27.00;;;;;;;;;;5030797;28;20646;-74
2020/12/06 14:38:55;;;;;;;50.23;27.77;;;;;;;;;;5016648;28;20583;-74
2020/12/06 14:41:59;;;;;;;53.73;28.90;;;;;;;;;;5020401;28;20658;-74
2020/12/06 14:45:04;;;;;;;45.07;22.27;;;;;;;;;;5009653;28;20547;-74
2020/12/06 14:48:08;;;;;;;41.50;19.67;;;;;;;;;;5032982;28;20540;-74
2020/12/06 14:51:12;;;;;;;52.17;26.60;;;;;;;;;;5003413;28;20601;-74
2020/12/06 14:54:17;;;;;;;43.20;20.67;;;;;;;;;;5006913;28;21184;-74
2020/12/06 14:57:20;;;;;;;42.47;22.03;;;;;;;;;;5033236;28;20627;-74
2020/12/06 15:00:25;;;;;;;54.67;24.77;;;;;;;;;;5022838;28;20620;-75
2020/12/06 15:03:29;;;;;;;42.50;19.70;;;;;;;;;;5012869;28;20623;-76
2020/12/06 15:06:36;;;;;;;44.57;21.40;;;;;;;;;;5002866;28;20647;-76
2020/12/06 15:09:40;;;;;;;44.67;20.77;;;;;;;;;;4990142;28;21133;-75
2020/12/06 15:12:45;;;;;;;42.50;20.43;;;;;;;;;;5024917;28;20615;-76
2020/12/06 15:15:49;;;;;;;39.23;19.13;;;;;;;;;;5012189;28;20631;-75
2020/12/06 15:18:53;;;;;;;48.60;22.23;;;;;;;;;;5019511;28;20579;-74
2020/12/06 15:21:57;;;;;;;43.43;19.67;;;;;;;;;;5021948;28;20600;-75
2020/12/06 15:25:03;;;;;;;46.57;20.33;;;;;;;;;;5031361;28;20596;-74
2020/12/06 15:28:07;;;;;;;45.60;21.33;;;;;;;;;;5017097;28;20549;-76
2020/12/06 15:31:12;;;;;;;50.00;21.47;;;;;;;;;;5004593;28;20552;-76
2020/12/06 15:34:16;;;;;;;59.73;27.60;;;;;;;;;;5034226;28;20582;-77
2020/12/06 15:37:20;;;;;;;51.93;25.40;;;;;;;;;;5030538;23;20691;-73
2020/12/06 15:40:25;;;;;;;46.20;20.67;;;;;;;;;;4991342;28;20585;-73
2020/12/06 15:43:30;;;;;;;42.87;20.83;;;;;;;;;;4985134;28;20538;-73
2020/12/06 15:46:34;;;;;;;41.10;18.33;;;;;;;;;;4975302;28;20984;-73
2020/12/06 15:49:39;;;;;;;45.07;18.90;;;;;;;;;;4943248;28;20547;-73
2020/12/06 15:52:43;;;;;;;44.73;19.07;;;;;;;;;;4977166;28;20534;-73
2020/12/06 15:55:47;;;;;;;50.10;20.33;;;;;;;;;;4954152;28;20629;-73
2020/12/06 15:58:51;;;;;;;39.10;17.77;;;;;;;;;;4992041;28;20624;-73
2020/12/06 16:01:55;;;;;;;51.17;20.70;;;;;;;;;;4996493;28;20606;-73
2020/12/06 16:05:00;;;;;;;49.83;18.90;;;;;;;;;;4964790;28;20636;-73
2020/12/06 16:08:04;;;;;;;50.87;20.30;;;;;;;;;;4949117;28;20594;-73
2020/12/06 16:11:09;;;;;;;51.63;20.53;;;;;;;;;;4977126;28;20535;-73
2020/12/06 16:14:14;;;;;;;50.93;19.90;;;;;;;;;;4976589;28;20539;-73
2020/12/06 16:17:19;;;;;;;53.03;20.67;;;;;;;;;;4960316;28;20652;-73
2020/12/06 16:20:24;;;;;;;51.93;21.57;;;;;;;;;;4995862;28;20589;-73
2020/12/06 16:23:28;;;;;;;56.07;21.10;;;;;;;;;;4982790;28;21140;-74
2020/12/06 16:26:34;;;;;;;52.43;22.50;;;;;;;;;;4976374;28;20629;-74
2020/12/06 16:29:38;;;;;;;50.47;20.63;;;;;;;;;;4965610;28;20547;-74
2020/12/06 16:32:44;;;;;;;51.07;19.83;;;;;;;;;;4963971;28;20587;-74
2020/12/06 16:35:49;;;;;;;44.80;17.70;;;;;;;;;;4987100;28;20648;-74
2020/12/06 16:38:54;;;;;;;50.60;21.07;;;;;;;;;;4996199;28;21118;-73
2020/12/06 16:41:58;;;;;;;57.10;25.30;;;;;;;;;;4980411;28;20658;-72
2020/12/06 16:45:04;;;;;;;62.13;28.90;;;;;;;;;;4982285;28;21183;-72
2020/12/06 16:48:09;;;;;;;47.27;21.37;;;;;;;;;;4976775;28;20556;-73
2020/12/06 16:51:13;;;;;;;48.97;22.43;;;;;;;;;;4977123;28;20957;-73
2020/12/06 16:54:18;;;;;;;47.63;22.70;;;;;;;;;;4965583;28;20621;-72
2020/12/06 16:57:22;;;;;;;44.80;21.27;;;;;;;;;;4980698;28;20652;-72
2020/12/06 17:00:26;;;;;;;53.73;22.47;;;;;;;;;;4997076;28;20541;-72
2020/12/06 17:03:31;;;;;;;53.50;21.73;;;;;;;;;;4996288;28;20534;-72
2020/12/06 17:06:35;;;;;;;48.80;21.53;;;;;;;;;;4973397;28;20645;-72
2020/12/06 17:09:40;;;;;;;54.77;21.63;;;;;;;;;;4983477;28;20577;-72
2020/12/06 17:12:44;;;;;;;50.63;19.53;;;;;;;;;;4984114;28;20945;-72
2020/12/06 17:15:49;;;;;;;51.17;19.67;;;;;;;;;;4984409;28;20989;-72
2020/12/06 17:18:53;;;;;;;42.93;18.30;;;;;;;;;;4957189;28;20590;-72
2020/12/06 17:21:58;;;;;;;38.53;17.27;;;;;;;;;;4976314;28;20603;-72
2020/12/06 17:25:02;;;;;;;43.53;18.23;;;;;;;;;;4976162;28;20555;-72
2020/12/06 17:28:07;;;;;;;43.47;19.53;;;;;;;;;;4992924;28;20617;-72
2020/12/06 17:31:11;;;;;;;48.67;20.77;;;;;;;;;;4996206;28;20601;-72
2020/12/06 17:34:15;;;;;;;49.00;20.83;;;;;;;;;;4964236;28;20539;-72
2020/12/06 17:37:19;;;;;;;46.90;18.83;;;;;;;;;;4962040;28;21008;-72
2020/12/06 17:40:24;;;;;;;58.73;20.90;;;;;;;;;;4972413;28;20558;-73
2020/12/06 17:43:28;;;;;;;49.70;20.70;;;;;;;;;;4976713;28;20570;-72
2020/12/06 17:46:32;;;;;;;56.37;20.57;;;;;;;;;;4979207;28;20641;-72
2020/12/06 17:49:39;;;;;;;51.23;19.30;;;;;;;;;;4994742;28;20585;-72
2020/12/06 17:52:43;;;;;;;51.73;17.90;;;;;;;;;;4995373;28;20545;-72
2020/12/06 17:55:47;;;;;;;49.07;18.40;;;;;;;;;;4983080;28;20999;-72